createdAt,value
2018-06-02T00:00:03.920Z,100200.20
2018-06-02T00:01:09.695Z,100201.91
2018-06-02T00:02:15.456Z,100199.80
2018-06-02T00:03:21.214Z,100202.70
2018-06-02T00:04:27.020Z,100205.02
2018-06-02T00:05:32.786Z,100201.93
2018-06-02T00:06:38.556Z,100208.17
2018-06-02T00:07:44.427Z,100203.53
2018-06-02T00:08:50.182Z,100197.05
2018-06-02T00:09:56.754Z,100201.31
2018-06-02T00:11:02.515Z,100200.56
2018-06-02T00:12:08.263Z,100195.30
2018-06-02T00:13:14.253Z,100196.42
2018-06-02T00:14:20.026Z,100196.30
2018-06-02T00:15:25.808Z,100202.54
2018-06-02T00:16:31.555Z,100196.80
2018-06-02T00:17:38.185Z,100189.70
2018-06-02T00:18:43.949Z,100196.19
2018-06-02T00:19:49.708Z,100192.81
2018-06-02T00:20:55.503Z,100193.44
2018-06-02T00:22:01.263Z,100197.11
2018-06-02T00:23:07.031Z,100198.09
2018-06-02T00:24:12.459Z,100194.58
2018-06-02T00:25:18.223Z,100193.31
2018-06-02T00:26:23.998Z,100195.69
2018-06-02T00:27:29.756Z,100193.69
2018-06-02T00:28:35.802Z,100193.62
2018-06-02T00:29:41.558Z,100191.93
2018-06-02T00:30:47.390Z,100200.06
2018-06-02T00:31:53.172Z,100205.55
2018-06-02T00:32:58.950Z,100194.96
2018-06-02T00:34:05.412Z,100203.09
2018-06-02T00:35:11.202Z,100205.82
2018-06-02T00:36:16.956Z,100201.64
2018-06-02T00:37:22.843Z,100201.64
2018-06-02T00:38:29.359Z,100202.19
2018-06-02T00:39:35.130Z,100195.67
2018-06-02T00:40:41.656Z,100203.23
2018-06-02T00:41:48.216Z,100203.40
2018-06-02T00:42:54.010Z,100193.56
2018-06-02T00:43:59.851Z,100196.87
2018-06-02T00:45:05.267Z,100197.14
2018-06-02T00:46:11.792Z,100192.47
2018-06-02T00:47:17.555Z,100191.49
2018-06-02T00:48:23.342Z,100198.28
2018-06-02T00:49:29.100Z,100197.58
2018-06-02T00:50:34.863Z,100189.69
2018-06-02T00:51:40.628Z,100188.42
2018-06-02T00:52:47.160Z,100191.99
2018-06-02T00:53:52.936Z,100191.28
2018-06-02T00:55:09.639Z,100191.84
2018-06-02T00:56:16.409Z,100197.75
2018-06-02T00:57:22.926Z,100192.43
2018-06-02T00:58:28.680Z,100192.50
2018-06-02T00:59:35.342Z,100193.41
2018-06-02T01:00:42.611Z,100187.27
2018-06-02T01:01:48.192Z,100192.17
2018-06-02T01:02:53.955Z,100200.42
2018-06-02T01:03:59.722Z,100190.48
2018-06-02T01:05:05.174Z,100190.91
2018-06-02T01:06:10.940Z,100192.41
2018-06-02T01:07:18.197Z,100191.83
2018-06-02T01:08:23.950Z,100192.48
2018-06-02T01:09:29.704Z,100189.88
2018-06-02T01:10:36.352Z,100188.48
2018-06-02T01:11:48.880Z,100187.22
2018-06-02T01:12:54.649Z,100184.75
2018-06-02T01:14:00.415Z,100191.70
2018-06-02T01:15:05.877Z,100187.35
2018-06-02T01:16:13.083Z,100185.47
2018-06-02T01:17:18.845Z,100186.80
2018-06-02T01:18:24.616Z,100188.75
2018-06-02T01:19:30.371Z,100193.94
2018-06-02T01:20:36.960Z,100188.98
2018-06-02T01:21:42.744Z,100189.11
2018-06-02T01:22:48.515Z,100186.09
2018-06-02T01:23:55.115Z,100190.16
2018-06-02T01:25:00.881Z,100192.13
2018-06-02T01:26:06.673Z,100187.36
2018-06-02T01:27:13.231Z,100192.81
2018-06-02T01:28:19.747Z,100190.87
2018-06-02T01:29:25.519Z,100199.28
2018-06-02T01:30:31.278Z,100191.48
2018-06-02T01:31:37.799Z,100190.32
2018-06-02T01:32:43.593Z,100190.03
2018-06-02T01:33:50.117Z,100196.75
2018-06-02T01:34:55.892Z,100187.92
2018-06-02T01:36:01.652Z,100196.39
2018-06-02T01:37:07.412Z,100191.48
2018-06-02T01:38:13.232Z,100193.47
2018-06-02T01:39:18.983Z,100193.66
2018-06-02T01:40:24.767Z,100193.95
2018-06-02T01:41:30.563Z,100192.88
2018-06-02T01:42:36.100Z,100190.81
2018-06-02T01:43:41.886Z,100192.20
2018-06-02T01:44:47.648Z,100190.94
2018-06-02T01:45:54.171Z,100197.88
2018-06-02T01:46:59.980Z,100197.11
2018-06-02T01:48:05.400Z,100196.61
2018-06-02T01:49:11.177Z,100198.50
2018-06-02T01:50:16.927Z,100195.06
2018-06-02T01:51:22.684Z,100197.78
2018-06-02T01:52:28.439Z,100193.37
2018-06-02T01:53:34.200Z,100188.34
2018-06-02T01:54:40.747Z,100187.07
2018-06-02T01:55:47.279Z,100187.56
2018-06-02T01:56:53.035Z,100185.91
2018-06-02T01:57:58.807Z,100187.98
2018-06-02T01:59:04.584Z,100187.62
2018-06-02T02:00:10.394Z,100194.27
2018-06-02T02:01:16.911Z,100186.45
2018-06-02T02:02:22.668Z,100183.56
2018-06-02T02:03:29.991Z,100183.20
2018-06-02T02:04:35.762Z,100176.23
2018-06-02T02:05:41.570Z,100182.17
2018-06-02T02:06:47.339Z,100182.39
2018-06-02T02:07:53.129Z,100182.59
2018-06-02T02:08:58.887Z,100178.11
2018-06-02T02:10:04.492Z,100181.81
2018-06-02T02:11:10.268Z,100183.63
2018-06-02T02:12:16.217Z,100185.80
2018-06-02T02:13:21.963Z,100183.30
2018-06-02T02:14:27.722Z,100191.83
2018-06-02T02:15:33.474Z,100180.89
2018-06-02T02:16:39.255Z,100188.03
2018-06-02T02:17:45.812Z,100187.91
2018-06-02T02:18:51.568Z,100187.00
2018-06-02T02:19:58.100Z,100183.13
2018-06-02T02:21:03.863Z,100182.29
2018-06-02T02:22:10.426Z,100188.88
2018-06-02T02:23:16.948Z,100187.13
2018-06-02T02:24:23.026Z,100192.80
2018-06-02T02:25:29.554Z,100185.54
2018-06-02T02:26:35.354Z,100183.72
2018-06-02T02:27:41.136Z,100183.14
2018-06-02T02:28:46.890Z,100188.63
2018-06-02T02:29:52.666Z,100190.77
2018-06-02T02:30:59.186Z,100182.17
2018-06-02T02:32:04.951Z,100187.06
2018-06-02T02:33:11.524Z,100189.72
2018-06-02T02:34:18.044Z,100192.25
2018-06-02T02:35:23.855Z,100192.31
2018-06-02T02:36:29.782Z,100189.78
2018-06-02T02:37:36.303Z,100187.05
2018-06-02T02:38:42.718Z,100189.42
2018-06-02T02:39:48.478Z,100191.65
2018-06-02T02:40:54.233Z,100191.65
2018-06-02T02:41:59.995Z,100195.31
2018-06-02T02:43:05.765Z,100188.50
2018-06-02T02:44:12.312Z,100191.94
2018-06-02T02:45:18.864Z,100191.03
2018-06-02T02:46:24.616Z,100196.06
2018-06-02T02:47:31.139Z,100189.42
2018-06-02T02:48:36.907Z,100199.24
2018-06-02T02:49:42.692Z,100200.41
2018-06-02T02:50:48.459Z,100200.35
2018-06-02T02:51:54.219Z,100197.98
2018-06-02T02:53:00.031Z,100206.58
2018-06-02T02:54:05.786Z,100210.27
2018-06-02T02:55:11.566Z,100209.65
2018-06-02T02:56:18.287Z,100209.03
2018-06-02T02:57:24.047Z,100209.31
2018-06-02T02:58:29.828Z,100211.53
2018-06-02T02:59:35.583Z,100207.83
2018-06-02T03:00:41.373Z,100211.10
2018-06-02T03:01:47.116Z,100208.02
2018-06-02T03:02:52.876Z,100208.44
2018-06-02T03:03:59.423Z,100212.37
2018-06-02T03:05:05.180Z,100216.30
2018-06-02T03:06:11.735Z,100215.82
2018-06-02T03:07:17.487Z,100217.58
2018-06-02T03:08:24.012Z,100222.11
2018-06-02T03:09:29.784Z,100218.28
2018-06-02T03:10:36.319Z,100218.97
2018-06-02T03:11:42.098Z,100222.53
2018-06-02T03:12:48.376Z,100223.80
2018-06-02T03:13:54.123Z,100220.09
2018-06-02T03:14:59.884Z,100221.91
2018-06-02T03:16:05.638Z,100226.25
2018-06-02T03:17:11.412Z,100226.16
2018-06-02T03:18:17.937Z,100227.78
2018-06-02T03:19:23.694Z,100233.71
2018-06-02T03:20:29.461Z,100231.71
2018-06-02T03:21:35.979Z,100233.23
2018-06-02T03:22:41.790Z,100238.00
2018-06-02T03:23:47.543Z,100235.16
2018-06-02T03:24:53.295Z,100239.47
2018-06-02T03:25:59.054Z,100236.23
2018-06-02T03:27:04.809Z,100241.00
2018-06-02T03:28:10.599Z,100241.97
2018-06-02T03:29:16.359Z,100245.20
2018-06-02T03:30:22.539Z,100240.80
2018-06-02T03:31:29.053Z,100250.52
2018-06-02T03:32:34.825Z,100245.20
2018-06-02T03:33:40.611Z,100250.57
2018-06-02T03:34:47.128Z,100250.94
2018-06-02T03:35:52.888Z,100254.32
2018-06-02T03:36:58.643Z,100256.27
2018-06-02T03:38:04.608Z,100255.17
2018-06-02T03:39:10.387Z,100257.91
2018-06-02T03:40:16.155Z,100253.56
2018-06-02T03:41:22.679Z,100258.04
2018-06-02T03:42:28.517Z,100252.59
2018-06-02T03:43:33.982Z,100256.28
2018-06-02T03:44:39.833Z,100253.56
2018-06-02T03:45:45.666Z,100253.14
2018-06-02T03:46:51.567Z,100251.45
2018-06-02T03:47:57.398Z,100256.58
2018-06-02T03:49:03.211Z,100254.91
2018-06-02T03:50:09.008Z,100252.61
2018-06-02T03:51:15.546Z,100254.85
2018-06-02T03:52:21.316Z,100254.08
2018-06-02T03:53:27.091Z,100253.59
2018-06-02T03:54:33.611Z,100258.02
2018-06-02T03:55:39.390Z,100256.42
2018-06-02T03:56:45.142Z,100254.52
2018-06-02T03:57:50.902Z,100254.68
2018-06-02T03:58:57.579Z,100251.66
2018-06-02T04:00:03.009Z,100246.53
2018-06-02T04:01:08.903Z,100255.04
2018-06-02T04:02:14.676Z,100250.20
2018-06-02T04:03:20.439Z,100253.06
2018-06-02T04:04:26.683Z,100253.97
2018-06-02T04:05:34.000Z,100257.41
2018-06-02T04:06:39.778Z,100257.18
2018-06-02T04:07:45.544Z,100260.65
2018-06-02T04:08:52.067Z,100259.83
2018-06-02T04:09:57.823Z,100261.42
2018-06-02T04:11:03.586Z,100261.58
2018-06-02T04:12:10.139Z,100263.33
2018-06-02T04:13:16.687Z,100269.55
2018-06-02T04:14:23.221Z,100266.39
2018-06-02T04:15:29.114Z,100270.38
2018-06-02T04:16:35.648Z,100271.41
2018-06-02T04:17:41.202Z,100267.13
2018-06-02T04:18:47.737Z,100272.53
2018-06-02T04:19:53.506Z,100277.28
2018-06-02T04:21:00.033Z,100270.91
2018-06-02T04:22:05.792Z,100270.77
2018-06-02T04:23:11.600Z,100266.35
2018-06-02T04:24:17.365Z,100265.71
2018-06-02T04:25:23.682Z,100262.37
2018-06-02T04:26:29.443Z,100265.27
2018-06-02T04:27:35.213Z,100269.61
2018-06-02T04:28:41.023Z,100267.16
2018-06-02T04:29:46.792Z,100271.84
2018-06-02T04:30:53.324Z,100272.20
2018-06-02T04:31:59.104Z,100269.33
2018-06-02T04:34:23.898Z,100272.23
2018-06-02T04:35:30.435Z,100274.56
2018-06-02T04:36:36.202Z,100274.90
2018-06-02T04:37:42.731Z,100275.55
2018-06-02T04:38:48.491Z,100279.50
2018-06-02T04:39:55.057Z,100279.39
2018-06-02T04:41:00.816Z,100276.47
2018-06-02T04:42:07.332Z,100280.89
2018-06-02T04:43:13.118Z,100279.97
2018-06-02T04:44:19.901Z,100283.91
2018-06-02T04:45:25.714Z,100278.97
2018-06-02T04:46:32.299Z,100281.65
2018-06-02T04:47:38.087Z,100277.72
2018-06-02T04:48:43.861Z,100287.48
2018-06-02T04:49:50.625Z,100284.92
2018-06-02T04:50:57.208Z,100287.13
2018-06-02T04:52:04.223Z,100286.43
2018-06-02T04:53:09.973Z,100290.89
2018-06-02T04:54:15.739Z,100287.50
2018-06-02T04:55:22.272Z,100288.11
2018-06-02T04:56:28.559Z,100291.36
2018-06-02T04:57:35.106Z,100284.97
2018-06-02T04:58:40.863Z,100287.86
2018-06-02T04:59:47.391Z,100290.09
2018-06-02T05:00:53.172Z,100291.39
2018-06-02T05:01:59.735Z,100288.07
2018-06-02T05:03:05.592Z,100292.00
2018-06-02T05:04:11.339Z,100284.87
2018-06-02T05:05:17.099Z,100287.79
2018-06-02T05:06:22.859Z,100290.00
2018-06-02T05:07:28.703Z,100290.16
2018-06-02T05:08:34.455Z,100288.89
2018-06-02T05:09:40.238Z,100293.63
2018-06-02T05:10:46.001Z,100293.73
2018-06-02T05:11:51.850Z,100290.14
2018-06-02T05:12:57.654Z,100290.34
2018-06-02T05:14:04.219Z,100292.77
2018-06-02T05:15:10.761Z,100293.94
2018-06-02T05:16:16.727Z,100295.66
2018-06-02T05:17:22.498Z,100297.49
2018-06-02T05:18:28.286Z,100297.00
2018-06-02T05:19:34.809Z,100299.73
2018-06-02T05:20:40.761Z,100298.91
2018-06-02T05:21:46.518Z,100299.16
2018-06-02T05:22:53.819Z,100299.45
2018-06-02T05:24:00.372Z,100300.37
2018-06-02T05:25:06.157Z,100294.45
2018-06-02T05:26:11.926Z,100296.22
2018-06-02T05:27:17.681Z,100294.06
2018-06-02T05:28:23.488Z,100294.00
2018-06-02T05:29:29.267Z,100293.81
2018-06-02T05:30:35.040Z,100298.07
2018-06-02T05:31:41.567Z,100296.39
2018-06-02T05:32:48.110Z,100299.95
2018-06-02T05:33:53.893Z,100297.52
2018-06-02T05:35:00.455Z,100297.41
2018-06-02T05:36:06.988Z,100301.95
2018-06-02T05:37:12.752Z,100299.69
2018-06-02T05:38:19.279Z,100304.11
2018-06-02T05:39:25.053Z,100308.57
2018-06-02T05:40:30.298Z,100309.78
2018-06-02T05:41:36.819Z,100311.48
2018-06-02T05:42:42.584Z,100308.85
2018-06-02T05:43:49.130Z,100304.27
2018-06-02T05:44:54.916Z,100310.92
2018-06-02T05:46:00.821Z,100310.34
2018-06-02T05:47:07.112Z,100308.44
2018-06-02T05:48:12.879Z,100303.59
2018-06-02T05:49:18.641Z,100304.47
2018-06-02T05:50:24.685Z,100305.55
2018-06-02T05:51:30.468Z,100301.17
2018-06-02T05:52:37.027Z,100297.92
2018-06-02T05:53:43.558Z,100297.19
2018-06-02T05:54:49.415Z,100297.76
2018-06-02T05:55:54.839Z,100301.36
2018-06-02T05:57:00.635Z,100300.52
2018-06-02T05:58:06.398Z,100295.23
2018-06-02T05:59:12.187Z,100303.55
2018-06-02T06:00:18.738Z,100304.28
2018-06-02T06:01:24.588Z,100304.46
2018-06-02T06:02:31.175Z,100305.54
2018-06-02T06:03:36.982Z,100303.70
2018-06-02T06:04:42.769Z,100306.80
2018-06-02T06:05:48.528Z,100304.89
2018-06-02T06:06:54.335Z,100300.52
2018-06-02T06:08:00.298Z,100299.02
2018-06-02T06:09:06.039Z,100300.35
2018-06-02T06:10:11.804Z,100299.95
2018-06-02T06:11:17.574Z,100290.12
2018-06-02T06:12:23.336Z,100294.44
2018-06-02T06:13:29.895Z,100296.25
2018-06-02T06:14:36.427Z,100297.94
2018-06-02T06:15:42.213Z,100298.11
2018-06-02T06:16:47.979Z,100303.54
2018-06-02T06:17:53.759Z,100302.14
2018-06-02T06:18:59.545Z,100300.22
2018-06-02T06:20:04.996Z,100303.30
2018-06-02T06:21:10.752Z,100306.48
2018-06-02T06:22:16.522Z,100306.80
2018-06-02T06:23:23.809Z,100303.36
2018-06-02T06:24:31.121Z,100303.97
2018-06-02T06:25:36.927Z,100307.61
2018-06-02T06:26:42.700Z,100309.58
2018-06-02T06:27:48.464Z,100310.68
2018-06-02T06:28:54.244Z,100304.69
2018-06-02T06:30:00.046Z,100312.59
2018-06-02T06:31:05.587Z,100311.17
2018-06-02T06:32:11.410Z,100300.68
2018-06-02T06:33:17.179Z,100311.72
2018-06-02T06:34:22.955Z,100310.79
2018-06-02T06:35:28.949Z,100306.52
2018-06-02T06:36:34.708Z,100305.67
2018-06-02T06:37:40.488Z,100301.77
2018-06-02T06:38:47.031Z,100306.88
2018-06-02T06:39:52.808Z,100307.25
2018-06-02T06:40:59.099Z,100304.98
2018-06-02T06:42:04.885Z,100306.66
2018-06-02T06:43:11.431Z,100305.31
2018-06-02T06:44:17.211Z,100309.38
2018-06-02T06:45:23.003Z,100308.34
2018-06-02T06:46:28.866Z,100310.38
2018-06-02T06:47:34.795Z,100313.39
2018-06-02T06:48:40.586Z,100312.72
2018-06-02T06:49:47.117Z,100308.92
2018-06-02T06:50:52.888Z,100318.48
2018-06-02T06:51:58.689Z,100313.12
2018-06-02T06:53:04.464Z,100313.92
2018-06-02T06:54:10.007Z,100315.81
2018-06-02T06:55:16.522Z,100312.48
2018-06-02T06:56:22.286Z,100309.62
2018-06-02T06:57:28.075Z,100315.08
2018-06-02T06:58:33.841Z,100311.56
2018-06-02T06:59:39.619Z,100316.73
2018-06-02T07:00:46.166Z,100314.25
2018-06-02T07:01:51.934Z,100311.17
2018-06-02T07:02:58.491Z,100308.44
2018-06-02T07:04:05.045Z,100307.30
2018-06-02T07:05:11.635Z,100311.31
2018-06-02T07:06:17.607Z,100309.38
2018-06-02T07:07:23.384Z,100303.85
2018-06-02T07:08:29.182Z,100312.05
2018-06-02T07:09:34.955Z,100315.48
2018-06-02T07:10:40.515Z,100312.47
2018-06-02T07:11:47.076Z,100314.50
2018-06-02T07:12:53.032Z,100311.95
2018-06-02T07:13:59.699Z,100317.84
2018-06-02T07:15:05.900Z,100318.57
2018-06-02T07:16:11.884Z,100319.11
2018-06-02T07:17:17.651Z,100319.19
2018-06-02T07:18:23.439Z,100316.59
2018-06-02T07:19:29.350Z,100318.92
2018-06-02T07:20:35.126Z,100320.03
2018-06-02T07:21:40.744Z,100318.36
2018-06-02T07:22:46.782Z,100324.55
2018-06-02T07:23:52.564Z,100318.02
2018-06-02T07:24:59.146Z,100317.67
2018-06-02T07:26:05.359Z,100326.36
2018-06-02T07:27:11.143Z,100329.94
2018-06-02T07:28:17.726Z,100324.98
2018-06-02T07:29:24.492Z,100327.59
2018-06-02T07:30:30.489Z,100328.34
2018-06-02T07:31:37.040Z,100329.17
2018-06-02T07:32:42.824Z,100327.11
2018-06-02T07:33:49.430Z,100329.79
2018-06-02T07:34:55.237Z,100329.19
2018-06-02T07:36:00.899Z,100333.37
2018-06-02T07:37:07.464Z,100329.20
2018-06-02T07:38:13.334Z,100330.83
2018-06-02T07:39:19.977Z,100328.94
2018-06-02T07:40:25.794Z,100332.31
2018-06-02T07:41:31.673Z,100335.84
2018-06-02T07:42:37.442Z,100340.88
2018-06-02T07:43:44.018Z,100342.41
2018-06-02T07:44:50.557Z,100338.83
2018-06-02T07:45:57.836Z,100334.74
2018-06-02T07:47:03.643Z,100343.73
2018-06-02T07:48:09.428Z,100342.82
2018-06-02T07:49:15.992Z,100337.88
2018-06-02T07:50:22.543Z,100340.38
2018-06-02T07:51:29.082Z,100340.84
2018-06-02T07:52:34.844Z,100339.69
2018-06-02T07:53:41.407Z,100340.95
2018-06-02T07:54:47.031Z,100348.00
2018-06-02T07:55:52.828Z,100336.28
2018-06-02T07:56:58.768Z,100336.20
2018-06-02T07:58:04.576Z,100339.80
2018-06-02T07:59:11.113Z,100342.14
2018-06-02T08:00:16.900Z,100343.56
2018-06-02T08:01:22.719Z,100348.84
2018-06-02T08:02:28.492Z,100348.84
2018-06-02T08:03:34.312Z,100343.25
2018-06-02T08:04:40.853Z,100342.09
2018-06-02T08:05:46.626Z,100343.93
2018-06-02T08:06:52.427Z,100339.02
2018-06-02T08:07:58.190Z,100339.66
2018-06-02T08:09:04.479Z,100339.92
2018-06-02T08:10:10.323Z,100343.02
2018-06-02T08:11:16.110Z,100342.94
2018-06-02T08:12:22.670Z,100342.08
2018-06-02T08:13:29.044Z,100338.95
2018-06-02T08:14:35.620Z,100340.28
2018-06-02T08:15:42.180Z,100341.19
2018-06-02T08:16:48.727Z,100341.19
2018-06-02T08:17:54.495Z,100344.38
2018-06-02T08:19:01.063Z,100343.13
2018-06-02T08:20:07.439Z,100346.22
2018-06-02T08:21:13.304Z,100348.50
2018-06-02T08:22:19.084Z,100350.41
2018-06-02T08:23:24.864Z,100340.25
2018-06-02T08:24:30.632Z,100346.53
2018-06-02T08:25:36.507Z,100344.12
2018-06-02T08:26:42.304Z,100350.42
2018-06-02T08:27:48.267Z,100346.16
2018-06-02T08:28:54.106Z,100349.18
2018-06-02T08:29:59.934Z,100349.41
2018-06-02T08:31:05.846Z,100343.02
2018-06-02T08:32:12.445Z,100347.27
2018-06-02T08:33:19.322Z,100348.19
2018-06-02T08:34:25.867Z,100348.66
2018-06-02T08:35:31.787Z,100355.78
2018-06-02T08:36:37.615Z,100355.52
2018-06-02T08:37:43.439Z,100348.70
2018-06-02T08:38:50.030Z,100351.55
2018-06-02T08:39:55.800Z,100352.33
2018-06-02T08:41:01.613Z,100358.20
2018-06-02T08:42:08.332Z,100361.41
2018-06-02T08:43:14.882Z,100366.59
2018-06-02T08:44:23.014Z,100363.25
2018-06-02T08:45:28.797Z,100363.55
2018-06-02T08:46:35.009Z,100376.05
2018-06-02T08:47:40.869Z,100370.92
2018-06-02T08:48:46.650Z,100369.32
2018-06-02T08:49:52.773Z,100371.66
2018-06-02T08:50:59.348Z,100375.68
2018-06-02T08:52:06.255Z,100375.26
2018-06-02T08:53:12.081Z,100376.48
2018-06-02T08:54:18.749Z,100372.13
2018-06-02T08:55:24.688Z,100377.55
2018-06-02T08:56:32.231Z,100382.48
2018-06-02T08:57:38.765Z,100380.56
2018-06-02T08:58:44.573Z,100383.50
2018-06-02T08:59:51.143Z,100378.42
2018-06-02T09:00:57.694Z,100388.64
2018-06-02T09:02:04.228Z,100388.19
2018-06-02T09:03:10.010Z,100383.77
2018-06-02T09:04:16.587Z,100382.39
2018-06-02T09:05:22.399Z,100381.95
2018-06-02T09:06:28.411Z,100381.31
2018-06-02T09:07:34.376Z,100387.67
2018-06-02T09:08:40.938Z,100386.48
2018-06-02T09:09:46.782Z,100384.08
2018-06-02T09:10:53.355Z,100379.06
2018-06-02T09:12:00.957Z,100384.34
2018-06-02T09:13:07.524Z,100380.45
2018-06-02T09:14:13.297Z,100387.58
2018-06-02T09:15:20.149Z,100382.41
2018-06-02T09:16:25.934Z,100384.47
2018-06-02T09:17:32.615Z,100380.65
2018-06-02T09:18:38.392Z,100383.95
2018-06-02T09:19:44.468Z,100383.52
2018-06-02T09:20:50.119Z,100381.62
2018-06-02T09:21:56.888Z,100384.23
2018-06-02T09:23:06.250Z,100379.97
2018-06-02T09:24:12.912Z,100378.55
2018-06-02T09:25:19.623Z,100382.84
2018-06-02T09:26:25.626Z,100378.31
2018-06-02T09:27:32.508Z,100376.14
2018-06-02T09:28:38.661Z,100373.72
2018-06-02T09:29:46.550Z,100371.80
2018-06-02T09:30:52.598Z,100376.48
2018-06-02T09:31:58.480Z,100373.88
2018-06-02T09:33:06.103Z,100373.45
2018-06-02T09:34:13.195Z,100370.86
2018-06-02T09:35:20.135Z,100371.50
2018-06-02T09:36:26.540Z,100370.50
2018-06-02T09:37:38.406Z,100372.83
2018-06-02T09:38:44.358Z,100380.94
2018-06-02T09:39:51.432Z,100375.52
2018-06-02T09:40:58.292Z,100378.58
2018-06-02T09:42:05.066Z,100374.89
2018-06-02T09:43:11.821Z,100373.78
2018-06-02T09:44:18.536Z,100375.80
2018-06-02T09:45:26.463Z,100380.07
2018-06-02T09:46:34.538Z,100373.03
2018-06-02T09:47:42.591Z,100373.55
2018-06-02T09:48:49.442Z,100375.52
2018-06-02T09:49:56.515Z,100373.40
2018-06-02T09:51:03.285Z,100374.38
2018-06-02T09:52:09.944Z,100371.19
2018-06-02T09:53:16.099Z,100379.31
2018-06-02T09:54:22.255Z,100373.97
2018-06-02T09:55:28.874Z,100382.10
2018-06-02T09:56:35.801Z,100386.29
2018-06-02T09:57:42.243Z,100384.52
2018-06-02T09:58:49.406Z,100383.20
2018-06-02T09:59:55.561Z,100385.22
2018-06-02T10:01:03.833Z,100389.34
2018-06-02T10:02:10.382Z,100393.95
2018-06-02T10:03:18.129Z,100397.47
2018-06-02T10:04:24.164Z,100398.05
2018-06-02T10:05:31.860Z,100393.69
2018-06-02T10:06:37.860Z,100398.20
2018-06-02T10:07:46.956Z,100391.17
2018-06-02T10:08:52.787Z,100393.35
2018-06-02T10:09:59.894Z,100393.26
2018-06-02T10:11:08.103Z,100393.59
2018-06-02T10:12:14.209Z,100397.97
2018-06-02T10:13:20.079Z,100398.37
2018-06-02T10:14:26.201Z,100391.98
2018-06-02T10:15:32.019Z,100397.02
2018-06-02T10:16:38.265Z,100396.81
2018-06-02T10:17:44.185Z,100407.48
2018-06-02T10:18:49.973Z,100404.13
2018-06-02T10:19:56.618Z,100400.04
2018-06-02T10:21:02.733Z,100404.15
2018-06-02T10:22:08.906Z,100400.72
2018-06-02T10:23:14.776Z,100398.12
2018-06-02T10:24:22.242Z,100404.75
2018-06-02T10:25:29.137Z,100395.94
2018-06-02T10:26:35.174Z,100399.45
2018-06-02T10:27:42.139Z,100404.06
2018-06-02T10:28:48.612Z,100398.30
2018-06-02T10:29:55.648Z,100407.27
2018-06-02T10:31:01.608Z,100402.30
2018-06-02T10:32:08.038Z,100410.28
2018-06-02T10:33:14.090Z,100411.02
2018-06-02T10:34:20.192Z,100410.83
2018-06-02T10:35:26.825Z,100413.09
2018-06-02T10:36:32.748Z,100418.01
2018-06-02T10:37:38.689Z,100415.55
2018-06-02T10:38:46.246Z,100420.64
2018-06-02T10:39:54.496Z,100411.52
2018-06-02T10:41:00.538Z,100415.42
2018-06-02T10:42:06.738Z,100413.58
2018-06-02T10:43:14.119Z,100420.08
2018-06-02T10:44:19.912Z,100413.91
2018-06-02T10:45:27.604Z,100419.27
2018-06-02T10:46:34.579Z,100413.89
2018-06-02T10:47:40.557Z,100413.54
2018-06-02T10:48:46.357Z,100411.93
2018-06-02T10:49:52.211Z,100409.96
2018-06-02T10:50:58.225Z,100409.86
2018-06-02T10:52:05.023Z,100405.69
2018-06-02T10:53:11.469Z,100414.16
2018-06-02T10:54:17.318Z,100408.07
2018-06-02T10:55:23.270Z,100407.50
2018-06-02T10:56:30.138Z,100412.25
2018-06-02T10:57:36.288Z,100411.81
2018-06-02T10:58:42.180Z,100409.22
2018-06-02T10:59:48.102Z,100415.42
2018-06-02T11:00:54.432Z,100408.65
2018-06-02T11:02:00.859Z,100407.31
2018-06-02T11:03:09.056Z,100406.09
2018-06-02T11:04:15.719Z,100414.55
2018-06-02T11:05:24.302Z,100413.22
2018-06-02T11:06:30.696Z,100414.48
2018-06-02T11:07:37.345Z,100416.25
2018-06-02T11:08:45.478Z,100415.17
2018-06-02T11:09:54.204Z,100417.20
2018-06-02T11:11:01.286Z,100410.14
2018-06-02T11:12:09.683Z,100408.41
2018-06-02T11:13:16.727Z,100408.86
2018-06-02T11:14:22.632Z,100412.80
2018-06-02T11:15:28.607Z,100408.86
2018-06-02T11:16:34.538Z,100406.66
2018-06-02T11:17:42.186Z,100411.30
2018-06-02T11:18:48.459Z,100410.72
2018-06-02T11:19:54.610Z,100407.45
2018-06-02T11:21:00.829Z,100407.85
2018-06-02T11:22:06.867Z,100407.33
2018-06-02T11:23:14.492Z,100406.48
2018-06-02T11:24:21.431Z,100404.50
2018-06-02T11:25:27.672Z,100403.98
2018-06-02T11:26:33.820Z,100405.59
2018-06-02T11:27:39.877Z,100404.89
2018-06-02T11:28:46.137Z,100407.27
2018-06-02T11:29:52.378Z,100403.83
2018-06-02T11:30:58.468Z,100396.95
2018-06-02T11:32:05.485Z,100410.02
2018-06-02T11:33:11.707Z,100404.51
2018-06-02T11:34:19.507Z,100402.14
2018-06-02T11:35:26.533Z,100408.59
2018-06-02T11:36:32.657Z,100406.26
2018-06-02T11:37:39.457Z,100413.89
2018-06-02T11:38:45.638Z,100408.52
2018-06-02T11:39:51.785Z,100413.45
2018-06-02T11:40:58.805Z,100408.36
2018-06-02T11:42:05.002Z,100405.42
2018-06-02T11:43:12.780Z,100402.48
2018-06-02T11:44:18.896Z,100405.02
2018-06-02T11:45:25.860Z,100407.53
2018-06-02T11:46:33.034Z,100410.69
2018-06-02T11:47:40.107Z,100408.59
2018-06-02T11:48:46.637Z,100407.02
2018-06-02T11:49:52.553Z,100406.81
2018-06-02T11:51:00.353Z,100409.07
2018-06-02T11:52:07.445Z,100412.06
2018-06-02T11:53:13.317Z,100414.83
2018-06-02T11:54:19.469Z,100412.56
2018-06-02T11:55:25.720Z,100402.56
2018-06-02T11:56:31.873Z,100410.33
2018-06-02T11:57:37.926Z,100410.98
2018-06-02T11:58:43.970Z,100412.31
2018-06-02T11:59:50.021Z,100407.87
2018-06-02T12:00:55.985Z,100411.84
2018-06-02T12:02:02.207Z,100409.96
2018-06-02T12:03:09.254Z,100406.09
2018-06-02T12:04:15.890Z,100405.92
2018-06-02T12:05:23.330Z,100406.65
2018-06-02T12:06:29.241Z,100410.42
2018-06-02T12:07:36.166Z,100405.93
2018-06-02T12:08:42.362Z,100410.93
2018-06-02T12:09:49.124Z,100409.02
2018-06-02T12:10:56.389Z,100415.06
2018-06-02T12:12:02.748Z,100411.47
2018-06-02T12:13:10.825Z,100412.05
2018-06-02T12:14:17.758Z,100422.00
2018-06-02T12:15:23.838Z,100418.89
2018-06-02T12:16:29.749Z,100419.09
2018-06-02T12:17:37.706Z,100418.32
2018-06-02T12:18:44.009Z,100419.38
2018-06-02T12:19:50.217Z,100412.81
2018-06-02T12:20:56.506Z,100418.42
2018-06-02T12:22:02.576Z,100417.02
2018-06-02T12:23:08.554Z,100422.88
2018-06-02T12:24:14.655Z,100417.80
2018-06-02T12:25:20.874Z,100415.61
2018-06-02T12:26:26.879Z,100420.78
2018-06-02T12:27:32.918Z,100414.00
2018-06-02T12:28:39.051Z,100415.63
2018-06-02T12:29:45.485Z,100416.31
2018-06-02T12:30:52.243Z,100411.95
2018-06-02T12:31:58.156Z,100420.26
2018-06-02T12:33:04.882Z,100419.78
2018-06-02T12:34:11.034Z,100417.69
2018-06-02T12:35:17.044Z,100412.53
2018-06-02T12:36:23.853Z,100416.39